sensor_id;sensor_type;location;lat;lon;timestamp;P1;durP1;ratioP1;P2;durP2;ratioP2
74926;SDS011;63488;48.092;-1.640;2022-12-18T00:01:24;21.20;;;14.40;;
74926;SDS011;63488;48.092;-1.640;2022-12-18T00:03:50;17.92;;;12.88;;
74926;SDS011;63488;48.092;-1.640;2022-12-18T00:06:16;19.13;;;13.80;;
74926;SDS011;63488;48.092;-1.640;2022-12-18T00:08:42;20.42;;;14.27;;
74926;SDS011;63488;48.092;-1.640;2022-12-18T00:11:08;20.52;;;14.45;;
74926;SDS011;63488;48.092;-1.640;2022-12-18T00:13:35;21.75;;;15.32;;
74926;SDS011;63488;48.092;-1.640;2022-12-18T00:16:01;19.35;;;14.32;;
74926;SDS011;63488;48.092;-1.640;2022-12-18T00:18:27;17.48;;;13.50;;
74926;SDS011;63488;48.092;-1.640;2022-12-18T00:20:52;17.77;;;13.40;;
74926;SDS011;63488;48.092;-1.640;2022-12-18T00:23:17;18.15;;;12.90;;
74926;SDS011;63488;48.092;-1.640;2022-12-18T00:25:43;22.40;;;14.57;;
74926;SDS011;63488;48.092;-1.640;2022-12-18T00:28:08;20.80;;;15.18;;
74926;SDS011;63488;48.092;-1.640;2022-12-18T00:30:33;19.45;;;14.32;;
74926;SDS011;63488;48.092;-1.640;2022-12-18T00:32:59;19.75;;;14.57;;
74926;SDS011;63488;48.092;-1.640;2022-12-18T00:35:24;20.60;;;14.43;;
74926;SDS011;63488;48.092;-1.640;2022-12-18T00:37:49;18.58;;;13.45;;
74926;SDS011;63488;48.092;-1.640;2022-12-18T00:40:15;21.45;;;15.15;;
74926;SDS011;63488;48.092;-1.640;2022-12-18T00:42:40;18.35;;;13.00;;
74926;SDS011;63488;48.092;-1.640;2022-12-18T00:45:21;19.75;;;13.82;;
74926;SDS011;63488;48.092;-1.640;2022-12-18T00:47:47;21.40;;;14.27;;
74926;SDS011;63488;48.092;-1.640;2022-12-18T00:50:12;19.15;;;14.23;;
74926;SDS011;63488;48.092;-1.640;2022-12-18T00:52:37;18.90;;;14.10;;
74926;SDS011;63488;48.092;-1.640;2022-12-18T00:55:03;19.17;;;12.05;;
74926;SDS011;63488;48.092;-1.640;2022-12-18T00:57:28;19.13;;;14.35;;
74926;SDS011;63488;48.092;-1.640;2022-12-18T00:59:53;20.27;;;13.52;;
74926;SDS011;63488;48.092;-1.640;2022-12-18T01:02:19;19.75;;;14.73;;
74926;SDS011;63488;48.092;-1.640;2022-12-18T01:04:44;18.73;;;13.25;;
74926;SDS011;63488;48.092;-1.640;2022-12-18T01:07:09;18.23;;;13.55;;
74926;SDS011;63488;48.092;-1.640;2022-12-18T01:09:35;20.27;;;14.00;;
74926;SDS011;63488;48.092;-1.640;2022-12-18T01:12:00;18.92;;;14.13;;
74926;SDS011;63488;48.092;-1.640;2022-12-18T01:14:25;19.20;;;13.02;;
74926;SDS011;63488;48.092;-1.640;2022-12-18T01:16:51;19.63;;;14.02;;
74926;SDS011;63488;48.092;-1.640;2022-12-18T01:19:16;17.17;;;12.85;;
74926;SDS011;63488;48.092;-1.640;2022-12-18T01:21:41;16.77;;;12.57;;
74926;SDS011;63488;48.092;-1.640;2022-12-18T01:24:07;19.25;;;13.05;;
74926;SDS011;63488;48.092;-1.640;2022-12-18T01:26:32;18.98;;;13.45;;
74926;SDS011;63488;48.092;-1.640;2022-12-18T01:28:57;18.08;;;13.18;;
74926;SDS011;63488;48.092;-1.640;2022-12-18T01:31:25;18.40;;;12.77;;
74926;SDS011;63488;48.092;-1.640;2022-12-18T01:33:50;19.08;;;14.50;;
74926;SDS011;63488;48.092;-1.640;2022-12-18T01:36:23;20.35;;;14.25;;
74926;SDS011;63488;48.092;-1.640;2022-12-18T01:38:49;18.60;;;13.77;;
74926;SDS011;63488;48.092;-1.640;2022-12-18T01:41:15;19.73;;;14.73;;
74926;SDS011;63488;48.092;-1.640;2022-12-18T01:43:45;19.20;;;12.93;;
74926;SDS011;63488;48.092;-1.640;2022-12-18T01:46:11;20.92;;;14.38;;
74926;SDS011;63488;48.092;-1.640;2022-12-18T01:48:37;19.35;;;14.55;;
74926;SDS011;63488;48.092;-1.640;2022-12-18T01:51:04;19.17;;;14.40;;
74926;SDS011;63488;48.092;-1.640;2022-12-18T01:53:31;19.38;;;14.40;;
74926;SDS011;63488;48.092;-1.640;2022-12-18T01:55:56;17.20;;;13.05;;
74926;SDS011;63488;48.092;-1.640;2022-12-18T01:58:23;19.58;;;13.85;;
74926;SDS011;63488;48.092;-1.640;2022-12-18T02:00:51;20.45;;;14.02;;
74926;SDS011;63488;48.092;-1.640;2022-12-18T02:03:16;19.98;;;13.23;;
74926;SDS011;63488;48.092;-1.640;2022-12-18T02:05:54;17.88;;;12.85;;
74926;SDS011;63488;48.092;-1.640;2022-12-18T02:14:10;21.42;;;15.63;;
74926;SDS011;63488;48.092;-1.640;2022-12-18T02:16:50;21.73;;;15.00;;
74926;SDS011;63488;48.092;-1.640;2022-12-18T02:21:57;18.00;;;14.15;;
74926;SDS011;63488;48.092;-1.640;2022-12-18T02:24:29;20.67;;;14.52;;
74926;SDS011;63488;48.092;-1.640;2022-12-18T02:26:59;19.70;;;14.85;;
74926;SDS011;63488;48.092;-1.640;2022-12-18T02:29:27;20.50;;;14.52;;
74926;SDS011;63488;48.092;-1.640;2022-12-18T02:31:55;20.70;;;15.05;;
74926;SDS011;63488;48.092;-1.640;2022-12-18T02:34:22;20.90;;;14.63;;
74926;SDS011;63488;48.092;-1.640;2022-12-18T02:36:49;18.70;;;13.85;;
74926;SDS011;63488;48.092;-1.640;2022-12-18T02:39:15;18.83;;;14.55;;
74926;SDS011;63488;48.092;-1.640;2022-12-18T02:41:40;19.10;;;13.05;;
74926;SDS011;63488;48.092;-1.640;2022-12-18T02:44:08;16.00;;;12.63;;
74926;SDS011;63488;48.092;-1.640;2022-12-18T02:46:39;19.20;;;13.68;;
74926;SDS011;63488;48.092;-1.640;2022-12-18T02:49:11;18.65;;;13.52;;
74926;SDS011;63488;48.092;-1.640;2022-12-18T02:52:00;19.05;;;13.15;;
74926;SDS011;63488;48.092;-1.640;2022-12-18T02:54:31;18.17;;;13.90;;
74926;SDS011;63488;48.092;-1.640;2022-12-18T02:57:01;18.27;;;12.82;;
74926;SDS011;63488;48.092;-1.640;2022-12-18T02:59:38;18.60;;;14.05;;
74926;SDS011;63488;48.092;-1.640;2022-12-18T03:02:29;18.25;;;13.32;;
74926;SDS011;63488;48.092;-1.640;2022-12-18T03:05:09;17.67;;;13.20;;
74926;SDS011;63488;48.092;-1.640;2022-12-18T03:10:25;18.55;;;13.73;;
74926;SDS011;63488;48.092;-1.640;2022-12-18T03:12:52;21.77;;;14.23;;
74926;SDS011;63488;48.092;-1.640;2022-12-18T03:15:27;18.25;;;12.88;;
74926;SDS011;63488;48.092;-1.640;2022-12-18T03:17:56;18.33;;;13.40;;
74926;SDS011;63488;48.092;-1.640;2022-12-18T03:20:24;16.52;;;12.15;;
74926;SDS011;63488;48.092;-1.640;2022-12-18T03:22:52;20.13;;;14.45;;
74926;SDS011;63488;48.092;-1.640;2022-12-18T03:25:18;22.95;;;14.82;;
74926;SDS011;63488;48.092;-1.640;2022-12-18T03:27:46;19.85;;;14.82;;
74926;SDS011;63488;48.092;-1.640;2022-12-18T03:30:12;17.45;;;13.27;;
74926;SDS011;63488;48.092;-1.640;2022-12-18T03:32:39;17.02;;;13.20;;
74926;SDS011;63488;48.092;-1.640;2022-12-18T03:35:06;17.48;;;13.45;;
74926;SDS011;63488;48.092;-1.640;2022-12-18T03:37:32;18.75;;;13.48;;
74926;SDS011;63488;48.092;-1.640;2022-12-18T03:39:58;19.98;;;14.20;;
74926;SDS011;63488;48.092;-1.640;2022-12-18T03:42:26;17.05;;;12.85;;
74926;SDS011;63488;48.092;-1.640;2022-12-18T03:45:03;19.35;;;13.50;;
74926;SDS011;63488;48.092;-1.640;2022-12-18T03:47:38;16.85;;;12.27;;
74926;SDS011;63488;48.092;-1.640;2022-12-18T03:52:38;18.02;;;12.93;;
74926;SDS011;63488;48.092;-1.640;2022-12-18T03:55:07;18.55;;;13.73;;
74926;SDS011;63488;48.092;-1.640;2022-12-18T03:57:33;19.27;;;13.88;;
74926;SDS011;63488;48.092;-1.640;2022-12-18T04:00:00;18.63;;;13.75;;
74926;SDS011;63488;48.092;-1.640;2022-12-18T04:02:26;17.25;;;13.07;;
74926;SDS011;63488;48.092;-1.640;2022-12-18T04:04:54;18.85;;;13.60;;
74926;SDS011;63488;48.092;-1.640;2022-12-18T04:07:20;16.52;;;12.45;;
74926;SDS011;63488;48.092;-1.640;2022-12-18T04:09:47;19.33;;;13.68;;
74926;SDS011;63488;48.092;-1.640;2022-12-18T04:12:13;17.83;;;12.70;;
74926;SDS011;63488;48.092;-1.640;2022-12-18T04:14:38;19.55;;;13.38;;
74926;SDS011;63488;48.092;-1.640;2022-12-18T04:17:04;17.85;;;12.20;;
74926;SDS011;63488;48.092;-1.640;2022-12-18T04:19:29;17.70;;;11.70;;
74926;SDS011;63488;48.092;-1.640;2022-12-18T04:21:54;19.90;;;13.48;;
74926;SDS011;63488;48.092;-1.640;2022-12-18T04:24:20;18.27;;;13.10;;
74926;SDS011;63488;48.092;-1.640;2022-12-18T04:26:45;20.55;;;12.95;;
74926;SDS011;63488;48.092;-1.640;2022-12-18T04:29:10;17.98;;;13.30;;
74926;SDS011;63488;48.092;-1.640;2022-12-18T04:31:36;16.65;;;13.13;;
74926;SDS011;63488;48.092;-1.640;2022-12-18T04:34:01;17.55;;;13.20;;
74926;SDS011;63488;48.092;-1.640;2022-12-18T04:36:27;17.10;;;12.40;;
74926;SDS011;63488;48.092;-1.640;2022-12-18T04:38:52;18.27;;;12.55;;
74926;SDS011;63488;48.092;-1.640;2022-12-18T04:41:17;18.05;;;12.15;;
74926;SDS011;63488;48.092;-1.640;2022-12-18T04:43:43;16.63;;;12.35;;
74926;SDS011;63488;48.092;-1.640;2022-12-18T04:46:08;16.33;;;12.40;;
74926;SDS011;63488;48.092;-1.640;2022-12-18T04:48:34;17.58;;;11.88;;
74926;SDS011;63488;48.092;-1.640;2022-12-18T04:50:59;16.60;;;12.10;;
74926;SDS011;63488;48.092;-1.640;2022-12-18T04:53:25;16.73;;;12.00;;
74926;SDS011;63488;48.092;-1.640;2022-12-18T04:55:50;19.17;;;12.95;;
74926;SDS011;63488;48.092;-1.640;2022-12-18T04:58:15;19.95;;;13.60;;
74926;SDS011;63488;48.092;-1.640;2022-12-18T05:00:41;16.90;;;12.95;;
74926;SDS011;63488;48.092;-1.640;2022-12-18T05:03:06;18.63;;;13.65;;
74926;SDS011;63488;48.092;-1.640;2022-12-18T05:05:31;17.85;;;13.20;;
74926;SDS011;63488;48.092;-1.640;2022-12-18T05:07:59;16.02;;;12.18;;
74926;SDS011;63488;48.092;-1.640;2022-12-18T05:10:24;18.17;;;13.18;;
74926;SDS011;63488;48.092;-1.640;2022-12-18T05:12:49;18.27;;;12.95;;
74926;SDS011;63488;48.092;-1.640;2022-12-18T05:15:26;17.55;;;12.63;;
74926;SDS011;63488;48.092;-1.640;2022-12-18T05:17:51;15.93;;;11.32;;
74926;SDS011;63488;48.092;-1.640;2022-12-18T05:20:17;16.17;;;11.18;;
74926;SDS011;63488;48.092;-1.640;2022-12-18T05:22:43;18.98;;;12.63;;
74926;SDS011;63488;48.092;-1.640;2022-12-18T05:25:08;15.48;;;11.70;;
74926;SDS011;63488;48.092;-1.640;2022-12-18T05:27:34;15.98;;;11.80;;
74926;SDS011;63488;48.092;-1.640;2022-12-18T05:29:59;15.88;;;12.18;;
74926;SDS011;63488;48.092;-1.640;2022-12-18T05:32:24;15.48;;;11.63;;
74926;SDS011;63488;48.092;-1.640;2022-12-18T05:34:49;18.08;;;12.40;;
74926;SDS011;63488;48.092;-1.640;2022-12-18T05:37:15;17.30;;;11.95;;
74926;SDS011;63488;48.092;-1.640;2022-12-18T05:39:40;17.25;;;12.18;;
74926;SDS011;63488;48.092;-1.640;2022-12-18T05:42:05;17.52;;;12.27;;
74926;SDS011;63488;48.092;-1.640;2022-12-18T05:44:31;16.42;;;11.98;;
74926;SDS011;63488;48.092;-1.640;2022-12-18T05:46:56;16.23;;;11.77;;
74926;SDS011;63488;48.092;-1.640;2022-12-18T05:49:21;17.08;;;12.30;;
74926;SDS011;63488;48.092;-1.640;2022-12-18T05:51:47;18.30;;;12.68;;
74926;SDS011;63488;48.092;-1.640;2022-12-18T05:54:12;15.82;;;10.70;;
74926;SDS011;63488;48.092;-1.640;2022-12-18T05:56:37;18.02;;;11.02;;
74926;SDS011;63488;48.092;-1.640;2022-12-18T05:59:03;18.38;;;11.90;;
74926;SDS011;63488;48.092;-1.640;2022-12-18T06:01:28;18.73;;;12.20;;
74926;SDS011;63488;48.092;-1.640;2022-12-18T06:03:54;21.10;;;12.40;;
74926;SDS011;63488;48.092;-1.640;2022-12-18T06:06:20;16.85;;;11.30;;
74926;SDS011;63488;48.092;-1.640;2022-12-18T06:08:47;16.45;;;11.35;;
74926;SDS011;63488;48.092;-1.640;2022-12-18T06:11:12;17.67;;;12.48;;
74926;SDS011;63488;48.092;-1.640;2022-12-18T06:13:38;17.38;;;12.25;;
74926;SDS011;63488;48.092;-1.640;2022-12-18T06:16:06;16.88;;;12.38;;
74926;SDS011;63488;48.092;-1.640;2022-12-18T06:18:33;18.58;;;12.75;;
74926;SDS011;63488;48.092;-1.640;2022-12-18T06:20:58;18.00;;;12.60;;
74926;SDS011;63488;48.092;-1.640;2022-12-18T06:23:24;17.63;;;12.25;;
74926;SDS011;63488;48.092;-1.640;2022-12-18T06:25:49;16.38;;;12.05;;
74926;SDS011;63488;48.092;-1.640;2022-12-18T06:28:15;15.90;;;11.23;;
74926;SDS011;63488;48.092;-1.640;2022-12-18T06:30:42;17.40;;;11.75;;
74926;SDS011;63488;48.092;-1.640;2022-12-18T06:33:08;14.77;;;12.10;;
74926;SDS011;63488;48.092;-1.640;2022-12-18T06:35:34;17.65;;;12.30;;
74926;SDS011;63488;48.092;-1.640;2022-12-18T06:38:00;17.27;;;12.05;;
74926;SDS011;63488;48.092;-1.640;2022-12-18T06:40:26;16.00;;;11.48;;
74926;SDS011;63488;48.092;-1.640;2022-12-18T06:42:51;17.27;;;12.20;;
74926;SDS011;63488;48.092;-1.640;2022-12-18T06:45:16;16.42;;;11.25;;
74926;SDS011;63488;48.092;-1.640;2022-12-18T06:47:42;15.23;;;11.70;;
74926;SDS011;63488;48.092;-1.640;2022-12-18T06:50:07;16.30;;;11.00;;
74926;SDS011;63488;48.092;-1.640;2022-12-18T06:52:33;15.27;;;11.30;;
74926;SDS011;63488;48.092;-1.640;2022-12-18T06:54:59;14.20;;;11.02;;
74926;SDS011;63488;48.092;-1.640;2022-12-18T06:57:24;15.00;;;11.07;;
74926;SDS011;63488;48.092;-1.640;2022-12-18T06:59:49;16.98;;;11.73;;
74926;SDS011;63488;48.092;-1.640;2022-12-18T07:02:15;13.73;;;10.38;;
74926;SDS011;63488;48.092;-1.640;2022-12-18T07:04:40;15.70;;;11.00;;
74926;SDS011;63488;48.092;-1.640;2022-12-18T07:07:05;17.52;;;12.45;;
74926;SDS011;63488;48.092;-1.640;2022-12-18T07:09:31;15.93;;;11.32;;
74926;SDS011;63488;48.092;-1.640;2022-12-18T07:11:56;13.52;;;10.10;;
74926;SDS011;63488;48.092;-1.640;2022-12-18T07:14:22;14.45;;;10.45;;
74926;SDS011;63488;48.092;-1.640;2022-12-18T07:16:47;15.95;;;11.38;;
74926;SDS011;63488;48.092;-1.640;2022-12-18T07:19:12;14.32;;;10.80;;
74926;SDS011;63488;48.092;-1.640;2022-12-18T07:21:38;17.55;;;11.68;;
74926;SDS011;63488;48.092;-1.640;2022-12-18T07:24:03;16.08;;;11.10;;
74926;SDS011;63488;48.092;-1.640;2022-12-18T07:26:29;15.48;;;11.93;;
74926;SDS011;63488;48.092;-1.640;2022-12-18T07:28:55;14.15;;;10.13;;
74926;SDS011;63488;48.092;-1.640;2022-12-18T07:31:21;16.02;;;11.63;;
74926;SDS011;63488;48.092;-1.640;2022-12-18T07:33:46;15.68;;;11.50;;
74926;SDS011;63488;48.092;-1.640;2022-12-18T07:36:12;15.38;;;11.13;;
74926;SDS011;63488;48.092;-1.640;2022-12-18T07:38:38;17.42;;;11.13;;
74926;SDS011;63488;48.092;-1.640;2022-12-18T07:41:04;14.75;;;10.93;;
74926;SDS011;63488;48.092;-1.640;2022-12-18T07:43:29;15.93;;;11.60;;
74926;SDS011;63488;48.092;-1.640;2022-12-18T07:45:55;16.98;;;11.40;;
74926;SDS011;63488;48.092;-1.640;2022-12-18T07:48:20;15.90;;;11.52;;
74926;SDS011;63488;48.092;-1.640;2022-12-18T07:50:45;16.45;;;11.48;;
74926;SDS011;63488;48.092;-1.640;2022-12-18T07:53:11;15.40;;;11.07;;
74926;SDS011;63488;48.092;-1.640;2022-12-18T07:55:36;15.65;;;10.70;;
74926;SDS011;63488;48.092;-1.640;2022-12-18T07:58:02;15.02;;;10.65;;
74926;SDS011;63488;48.092;-1.640;2022-12-18T08:00:27;15.13;;;11.05;;
74926;SDS011;63488;48.092;-1.640;2022-12-18T08:02:53;14.43;;;10.73;;
74926;SDS011;63488;48.092;-1.640;2022-12-18T08:05:20;17.50;;;10.95;;
74926;SDS011;63488;48.092;-1.640;2022-12-18T08:07:46;15.02;;;10.52;;
74926;SDS011;63488;48.092;-1.640;2022-12-18T08:10:11;15.52;;;11.18;;
74926;SDS011;63488;48.092;-1.640;2022-12-18T08:12:36;14.00;;;10.18;;
74926;SDS011;63488;48.092;-1.640;2022-12-18T08:15:02;15.65;;;11.20;;
74926;SDS011;63488;48.092;-1.640;2022-12-18T08:17:27;14.32;;;10.38;;
74926;SDS011;63488;48.092;-1.640;2022-12-18T08:19:52;17.63;;;11.93;;
74926;SDS011;63488;48.092;-1.640;2022-12-18T08:22:18;15.30;;;10.80;;
74926;SDS011;63488;48.092;-1.640;2022-12-18T08:24:43;13.43;;;9.93;;
74926;SDS011;63488;48.092;-1.640;2022-12-18T08:27:09;14.57;;;10.73;;
74926;SDS011;63488;48.092;-1.640;2022-12-18T08:29:35;15.88;;;10.30;;
74926;SDS011;63488;48.092;-1.640;2022-12-18T08:32:00;15.63;;;11.25;;
74926;SDS011;63488;48.092;-1.640;2022-12-18T08:34:25;13.43;;;10.13;;
74926;SDS011;63488;48.092;-1.640;2022-12-18T08:36:50;16.20;;;11.07;;
74926;SDS011;63488;48.092;-1.640;2022-12-18T08:39:16;14.07;;;10.10;;
74926;SDS011;63488;48.092;-1.640;2022-12-18T08:41:41;15.85;;;11.10;;
74926;SDS011;63488;48.092;-1.640;2022-12-18T08:44:07;12.75;;;9.00;;
74926;SDS011;63488;48.092;-1.640;2022-12-18T08:46:51;15.52;;;10.40;;
74926;SDS011;63488;48.092;-1.640;2022-12-18T08:49:16;14.32;;;10.50;;
74926;SDS011;63488;48.092;-1.640;2022-12-18T08:51:41;13.73;;;10.10;;
74926;SDS011;63488;48.092;-1.640;2022-12-18T08:54:07;14.80;;;10.82;;
74926;SDS011;63488;48.092;-1.640;2022-12-18T08:56:34;14.30;;;9.82;;
74926;SDS011;63488;48.092;-1.640;2022-12-18T08:58:59;14.02;;;10.65;;
74926;SDS011;63488;48.092;-1.640;2022-12-18T09:01:25;14.73;;;10.50;;
74926;SDS011;63488;48.092;-1.640;2022-12-18T09:03:50;15.05;;;10.68;;
74926;SDS011;63488;48.092;-1.640;2022-12-18T09:06:16;13.75;;;9.95;;
74926;SDS011;63488;48.092;-1.640;2022-12-18T09:08:42;15.02;;;10.35;;
74926;SDS011;63488;48.092;-1.640;2022-12-18T09:11:19;15.98;;;9.70;;
74926;SDS011;63488;48.092;-1.640;2022-12-18T09:13:45;14.43;;;10.93;;
74926;SDS011;63488;48.092;-1.640;2022-12-18T09:16:10;15.32;;;10.43;;
74926;SDS011;63488;48.092;-1.640;2022-12-18T09:18:36;13.38;;;10.43;;
74926;SDS011;63488;48.092;-1.640;2022-12-18T09:21:07;16.50;;;11.18;;
74926;SDS011;63488;48.092;-1.640;2022-12-18T09:23:32;18.55;;;11.13;;
74926;SDS011;63488;48.092;-1.640;2022-12-18T09:25:58;17.35;;;11.18;;
74926;SDS011;63488;48.092;-1.640;2022-12-18T09:28:24;16.85;;;10.60;;
74926;SDS011;63488;48.092;-1.640;2022-12-18T09:30:49;17.02;;;11.32;;
74926;SDS011;63488;48.092;-1.640;2022-12-18T09:33:15;15.75;;;10.35;;
74926;SDS011;63488;48.092;-1.640;2022-12-18T09:35:41;15.98;;;10.93;;
74926;SDS011;63488;48.092;-1.640;2022-12-18T09:38:06;14.75;;;9.70;;
74926;SDS011;63488;48.092;-1.640;2022-12-18T09:40:34;15.50;;;10.70;;
74926;SDS011;63488;48.092;-1.640;2022-12-18T09:43:00;15.25;;;10.30;;
74926;SDS011;63488;48.092;-1.640;2022-12-18T09:45:27;16.25;;;10.90;;
74926;SDS011;63488;48.092;-1.640;2022-12-18T09:47:53;15.07;;;10.60;;
74926;SDS011;63488;48.092;-1.640;2022-12-18T09:52:51;16.80;;;10.75;;
74926;SDS011;63488;48.092;-1.640;2022-12-18T09:55:28;17.25;;;11.25;;
74926;SDS011;63488;48.092;-1.640;2022-12-18T09:57:56;16.67;;;10.52;;
74926;SDS011;63488;48.092;-1.640;2022-12-18T10:00:23;14.38;;;10.00;;
74926;SDS011;63488;48.092;-1.640;2022-12-18T10:02:51;18.55;;;10.50;;
74926;SDS011;63488;48.092;-1.640;2022-12-18T10:05:18;17.33;;;11.18;;
74926;SDS011;63488;48.092;-1.640;2022-12-18T10:10:34;15.75;;;10.75;;
74926;SDS011;63488;48.092;-1.640;2022-12-18T10:20:56;17.88;;;11.80;;
74926;SDS011;63488;48.092;-1.640;2022-12-18T10:23:43;15.38;;;10.35;;
74926;SDS011;63488;48.092;-1.640;2022-12-18T10:26:12;17.17;;;10.57;;
74926;SDS011;63488;48.092;-1.640;2022-12-18T10:28:38;14.90;;;8.88;;
74926;SDS011;63488;48.092;-1.640;2022-12-18T10:31:07;16.30;;;11.27;;
74926;SDS011;63488;48.092;-1.640;2022-12-18T10:33:39;16.55;;;9.82;;
74926;SDS011;63488;48.092;-1.640;2022-12-18T10:36:04;18.00;;;11.23;;
74926;SDS011;63488;48.092;-1.640;2022-12-18T10:38:31;16.92;;;10.82;;
74926;SDS011;63488;48.092;-1.640;2022-12-18T10:43:29;16.10;;;10.93;;
74926;SDS011;63488;48.092;-1.640;2022-12-18T10:51:04;17.45;;;9.73;;
74926;SDS011;63488;48.092;-1.640;2022-12-18T10:53:30;15.77;;;10.52;;
74926;SDS011;63488;48.092;-1.640;2022-12-18T10:55:57;17.45;;;11.15;;
74926;SDS011;63488;48.092;-1.640;2022-12-18T10:58:30;15.60;;;9.98;;
74926;SDS011;63488;48.092;-1.640;2022-12-18T11:06:05;16.30;;;10.52;;
74926;SDS011;63488;48.092;-1.640;2022-12-18T11:08:31;17.35;;;10.88;;
74926;SDS011;63488;48.092;-1.640;2022-12-18T11:10:56;14.60;;;10.13;;
74926;SDS011;63488;48.092;-1.640;2022-12-18T11:13:22;16.15;;;10.15;;
74926;SDS011;63488;48.092;-1.640;2022-12-18T11:15:48;13.65;;;9.63;;
74926;SDS011;63488;48.092;-1.640;2022-12-18T11:18:17;11.90;;;8.55;;
74926;SDS011;63488;48.092;-1.640;2022-12-18T11:20:49;14.57;;;9.20;;
74926;SDS011;63488;48.092;-1.640;2022-12-18T11:23:15;13.32;;;9.07;;
74926;SDS011;63488;48.092;-1.640;2022-12-18T11:25:41;14.93;;;9.60;;
74926;SDS011;63488;48.092;-1.640;2022-12-18T11:36:25;14.05;;;9.85;;
74926;SDS011;63488;48.092;-1.640;2022-12-18T11:38:53;13.10;;;9.23;;
74926;SDS011;63488;48.092;-1.640;2022-12-18T11:41:30;14.57;;;10.25;;
74926;SDS011;63488;48.092;-1.640;2022-12-18T11:44:19;13.07;;;9.45;;
74926;SDS011;63488;48.092;-1.640;2022-12-18T11:46:49;14.55;;;8.73;;
74926;SDS011;63488;48.092;-1.640;2022-12-18T11:49:24;13.80;;;10.02;;
74926;SDS011;63488;48.092;-1.640;2022-12-18T11:51:55;12.88;;;9.10;;
74926;SDS011;63488;48.092;-1.640;2022-12-18T11:54:23;12.45;;;9.40;;
74926;SDS011;63488;48.092;-1.640;2022-12-18T11:56:51;12.77;;;9.07;;
74926;SDS011;63488;48.092;-1.640;2022-12-18T12:01:51;12.93;;;9.07;;
74926;SDS011;63488;48.092;-1.640;2022-12-18T12:07:07;12.80;;;8.70;;
74926;SDS011;63488;48.092;-1.640;2022-12-18T12:17:38;11.73;;;8.25;;
74926;SDS011;63488;48.092;-1.640;2022-12-18T12:22:55;10.73;;;8.02;;
74926;SDS011;63488;48.092;-1.640;2022-12-18T12:25:57;11.25;;;7.93;;
74926;SDS011;63488;48.092;-1.640;2022-12-18T12:38:43;12.98;;;8.82;;
74926;SDS011;63488;48.092;-1.640;2022-12-18T12:41:12;11.48;;;8.15;;
74926;SDS011;63488;48.092;-1.640;2022-12-18T12:43:57;12.00;;;9.13;;
74926;SDS011;63488;48.092;-1.640;2022-12-18T12:46:23;12.38;;;8.20;;
74926;SDS011;63488;48.092;-1.640;2022-12-18T12:48:50;11.85;;;8.27;;
74926;SDS011;63488;48.092;-1.640;2022-12-18T12:51:28;12.10;;;8.15;;
74926;SDS011;63488;48.092;-1.640;2022-12-18T12:53:56;11.77;;;8.55;;
74926;SDS011;63488;48.092;-1.640;2022-12-18T12:56:22;12.40;;;8.82;;
74926;SDS011;63488;48.092;-1.640;2022-12-18T12:58:52;11.23;;;8.35;;
74926;SDS011;63488;48.092;-1.640;2022-12-18T13:04:08;11.68;;;8.25;;
74926;SDS011;63488;48.092;-1.640;2022-12-18T13:06:48;12.07;;;8.75;;
74926;SDS011;63488;48.092;-1.640;2022-12-18T13:09:15;11.52;;;8.60;;
74926;SDS011;63488;48.092;-1.640;2022-12-18T13:11:41;12.55;;;8.70;;
74926;SDS011;63488;48.092;-1.640;2022-12-18T13:14:30;12.98;;;9.25;;
74926;SDS011;63488;48.092;-1.640;2022-12-18T13:19:40;12.25;;;9.13;;
74926;SDS011;63488;48.092;-1.640;2022-12-18T13:22:12;12.73;;;9.50;;
74926;SDS011;63488;48.092;-1.640;2022-12-18T13:24:45;13.25;;;9.25;;
74926;SDS011;63488;48.092;-1.640;2022-12-18T13:27:44;14.23;;;9.02;;
74926;SDS011;63488;48.092;-1.640;2022-12-18T13:33:41;14.15;;;9.27;;
74926;SDS011;63488;48.092;-1.640;2022-12-18T13:40:56;13.38;;;9.68;;
74926;SDS011;63488;48.092;-1.640;2022-12-18T13:45:49;13.68;;;10.15;;
74926;SDS011;63488;48.092;-1.640;2022-12-18T13:48:21;13.88;;;9.93;;
74926;SDS011;63488;48.092;-1.640;2022-12-18T13:56:16;15.65;;;10.18;;
74926;SDS011;63488;48.092;-1.640;2022-12-18T13:58:42;12.73;;;9.98;;
74926;SDS011;63488;48.092;-1.640;2022-12-18T14:01:23;17.63;;;11.57;;
74926;SDS011;63488;48.092;-1.640;2022-12-18T14:03:48;34.28;;;19.63;;
74926;SDS011;63488;48.092;-1.640;2022-12-18T14:06:13;21.65;;;14.23;;
74926;SDS011;63488;48.092;-1.640;2022-12-18T14:08:40;15.70;;;11.25;;
74926;SDS011;63488;48.092;-1.640;2022-12-18T14:11:06;14.50;;;9.23;;
74926;SDS011;63488;48.092;-1.640;2022-12-18T14:13:33;14.27;;;9.30;;
74926;SDS011;63488;48.092;-1.640;2022-12-18T14:16:01;12.90;;;8.63;;
74926;SDS011;63488;48.092;-1.640;2022-12-18T14:20:56;11.95;;;8.40;;
74926;SDS011;63488;48.092;-1.640;2022-12-18T14:23:38;12.10;;;9.18;;
74926;SDS011;63488;48.092;-1.640;2022-12-18T14:26:19;11.40;;;8.07;;
74926;SDS011;63488;48.092;-1.640;2022-12-18T14:28:45;11.48;;;7.75;;
74926;SDS011;63488;48.092;-1.640;2022-12-18T14:31:20;10.40;;;7.65;;
74926;SDS011;63488;48.092;-1.640;2022-12-18T14:33:46;12.25;;;8.50;;
74926;SDS011;63488;48.092;-1.640;2022-12-18T14:36:14;9.38;;;7.50;;
74926;SDS011;63488;48.092;-1.640;2022-12-18T14:38:41;13.38;;;8.55;;
74926;SDS011;63488;48.092;-1.640;2022-12-18T14:41:09;12.20;;;7.90;;
74926;SDS011;63488;48.092;-1.640;2022-12-18T14:43:36;10.77;;;7.50;;
74926;SDS011;63488;48.092;-1.640;2022-12-18T14:46:02;10.90;;;8.10;;
74926;SDS011;63488;48.092;-1.640;2022-12-18T14:51:00;12.70;;;8.75;;
74926;SDS011;63488;48.092;-1.640;2022-12-18T14:53:34;13.50;;;8.02;;
74926;SDS011;63488;48.092;-1.640;2022-12-18T14:55:59;11.55;;;9.00;;
74926;SDS011;63488;48.092;-1.640;2022-12-18T14:58:25;10.73;;;7.70;;
74926;SDS011;63488;48.092;-1.640;2022-12-18T15:00:50;10.15;;;7.55;;
74926;SDS011;63488;48.092;-1.640;2022-12-18T15:03:19;11.73;;;8.07;;
74926;SDS011;63488;48.092;-1.640;2022-12-18T15:05:45;11.65;;;8.13;;
74926;SDS011;63488;48.092;-1.640;2022-12-18T15:08:26;10.85;;;7.82;;
74926;SDS011;63488;48.092;-1.640;2022-12-18T15:10:52;11.25;;;8.00;;
74926;SDS011;63488;48.092;-1.640;2022-12-18T15:13:21;11.82;;;8.65;;
74926;SDS011;63488;48.092;-1.640;2022-12-18T15:15:47;12.15;;;7.78;;
74926;SDS011;63488;48.092;-1.640;2022-12-18T15:18:32;13.95;;;8.45;;
74926;SDS011;63488;48.092;-1.640;2022-12-18T15:21:08;11.93;;;7.43;;
74926;SDS011;63488;48.092;-1.640;2022-12-18T15:26:08;12.38;;;7.88;;
74926;SDS011;63488;48.092;-1.640;2022-12-18T15:31:05;11.15;;;8.00;;
74926;SDS011;63488;48.092;-1.640;2022-12-18T15:33:34;9.55;;;7.05;;
74926;SDS011;63488;48.092;-1.640;2022-12-18T15:36:01;10.10;;;6.63;;
74926;SDS011;63488;48.092;-1.640;2022-12-18T15:38:26;9.00;;;6.07;;
74926;SDS011;63488;48.092;-1.640;2022-12-18T15:40:52;8.43;;;6.13;;
74926;SDS011;63488;48.092;-1.640;2022-12-18T15:43:19;8.80;;;5.78;;
74926;SDS011;63488;48.092;-1.640;2022-12-18T15:48:26;9.30;;;5.60;;
74926;SDS011;63488;48.092;-1.640;2022-12-18T15:50:52;8.25;;;5.63;;
74926;SDS011;63488;48.092;-1.640;2022-12-18T15:53:18;6.60;;;5.35;;
74926;SDS011;63488;48.092;-1.640;2022-12-18T15:55:43;8.10;;;5.60;;
74926;SDS011;63488;48.092;-1.640;2022-12-18T15:58:27;8.15;;;5.55;;
74926;SDS011;63488;48.092;-1.640;2022-12-18T16:00:53;7.13;;;5.45;;
74926;SDS011;63488;48.092;-1.640;2022-12-18T16:03:20;8.23;;;5.20;;
74926;SDS011;63488;48.092;-1.640;2022-12-18T16:05:45;7.13;;;5.55;;